Time;durP1;ratioP1;P1;durP2;ratioP2;P2;SDS_P1;SDS_P2;PMS_P1;PMS_P2;Temp;Humidity;BMP_temperature;BMP_pressure;BME280_temperature;BME280_humidity;BME280_pressure;Samples;Min_cycle;Max_cycle;Signal;HPM_P1;HPM_P2
2023/06/24 00:00:59;;;;;;;;;;;14.80;99.90;;;;;;5113041;28;20009;-73
2023/06/24 00:03:25;;;;;;;;;;;14.80;99.90;;;;;;5112916;28;19918;-73
2023/06/24 00:05:50;;;;;;;;;;;14.80;99.90;;;;;;5113212;28;19908;-73
2023/06/24 00:08:19;;;;;;;;;;;14.80;99.90;;;;;;5113433;28;19912;-73
2023/06/24 00:10:46;;;;;;;;;;;14.80;99.90;;;;;;5112087;28;20380;-73
2023/06/24 00:13:11;;;;;;;;;;;14.90;99.90;;;;;;5113185;28;19915;-73
2023/06/24 00:15:40;;;;;;;;;;;14.90;99.90;;;;;;5113343;28;20343;-73
2023/06/24 00:18:06;;;;;;;;;;;14.90;99.90;;;;;;5113935;28;19914;-73
2023/06/24 00:20:32;;;;;;;;;;;14.80;99.90;;;;;;5113255;28;19986;-73
2023/06/24 00:22:58;;;;;;;;;;;14.70;99.90;;;;;;5112791;28;19907;-73
2023/06/24 00:25:23;;;;;;;;;;;14.60;99.90;;;;;;5112645;28;19919;-73
2023/06/24 00:27:49;;;;;;;;;;;14.60;99.90;;;;;;5112668;28;19907;-73
2023/06/24 00:30:14;;;;;;;;;;;14.50;99.90;;;;;;5112213;28;19907;-73
2023/06/24 00:32:40;;;;;;;;;;;14.50;99.90;;;;;;5112852;28;19915;-73
2023/06/24 00:35:06;;;;;;;;;;;14.50;99.90;;;;;;5112810;28;19907;-72
2023/06/24 00:37:31;;;;;;;;;;;14.50;99.90;;;;;;5112969;28;20412;-73
2023/06/24 00:39:57;;;;;;;;;;;14.60;99.90;;;;;;5113249;28;19994;-73
2023/06/24 00:42:22;;;;;;;;;;;14.60;99.90;;;;;;5112776;28;19915;-73
2023/06/24 00:44:48;;;;;;;;;;;14.60;99.90;;;;;;5112707;28;19921;-73
2023/06/24 00:47:13;;;;;;;;;;;14.50;99.90;;;;;;5112933;28;19904;-73
2023/06/24 00:49:39;;;;;;;;;;;14.50;99.90;;;;;;5112705;28;20417;-73
2023/06/24 00:52:05;;;;;;;;;;;14.50;99.90;;;;;;5112870;28;19994;-73
2023/06/24 00:54:31;;;;;;;;;;;14.50;99.90;;;;;;5112604;28;19939;-73
2023/06/24 00:57:00;;;;;;;;;;;14.40;99.90;;;;;;5112473;28;20277;-73
2023/06/24 00:59:28;;;;;;;;;;;14.40;99.90;;;;;;5112800;28;20061;-73
2023/06/24 01:01:54;;;;;;;;;;;14.40;99.90;;;;;;5112660;28;19991;-73
2023/06/24 01:04:20;;;;;;;;;;;14.50;99.90;;;;;;5112376;28;19950;-73
2023/06/24 01:06:45;;;;;;;;;;;14.50;99.90;;;;;;5112413;28;19907;-73
2023/06/24 01:09:12;;;;;;;;;;;14.60;99.90;;;;;;5112711;28;19930;-73
2023/06/24 01:11:38;;;;;;;;;;;14.50;99.90;;;;;;5112379;28;20357;-73
2023/06/24 01:14:04;;;;;;;;;;;14.60;99.90;;;;;;5111087;28;19916;-73
2023/06/24 01:16:33;;;;;;;;;;;14.50;99.90;;;;;;5112613;28;19915;-73
2023/06/24 01:19:03;;;;;;;;;;;14.50;99.90;;;;;;5112518;28;19903;-73
2023/06/24 01:21:49;;;;;;;;;;;14.50;99.90;;;;;;5112348;28;19903;-73
2023/06/24 01:24:23;;;;;;;;;;;14.40;99.90;;;;;;5112099;28;19911;-73
2023/06/24 01:26:52;;;;;;;;;;;14.30;99.90;;;;;;5112076;28;20267;-73
2023/06/24 01:29:34;;;;;;;;;;;14.20;99.90;;;;;;5112131;28;19911;-72
2023/06/24 01:32:10;;;;;;;;;;;14.20;99.90;;;;;;5112907;28;19904;-73
2023/06/24 01:34:39;;;;;;;;;;;14.20;99.90;;;;;;5112231;28;19904;-73
2023/06/24 01:37:19;;;;;;;;;;;14.20;99.90;;;;;;5112106;28;24067;-73
2023/06/24 01:39:48;;;;;;;;;;;14.20;99.90;;;;;;5112140;28;20410;-73
2023/06/24 01:42:15;;;;;;;;;;;14.20;99.90;;;;;;5114780;28;19910;-73
2023/06/24 01:44:43;;;;;;;;;;;14.20;99.90;;;;;;5115805;28;19968;-73
2023/06/24 01:47:09;;;;;;;;;;;14.20;99.90;;;;;;5115769;28;19904;-73
2023/06/24 01:49:38;;;;;;;;;;;14.20;99.90;;;;;;5115465;28;19904;-73
2023/06/24 01:52:04;;;;;;;;;;;14.20;99.90;;;;;;5115595;28;20430;-73
2023/06/24 01:54:30;;;;;;;;;;;14.20;99.90;;;;;;5115962;28;19961;-73
2023/06/24 01:56:57;;;;;;;;;;;14.10;99.90;;;;;;5115811;28;20285;-73
2023/06/24 01:59:23;;;;;;;;;;;14.10;99.90;;;;;;5115275;28;19995;-73
2023/06/24 02:01:50;;;;;;;;;;;14.20;99.90;;;;;;5115615;28;20250;-73
2023/06/24 02:04:17;;;;;;;;;;;14.10;99.90;;;;;;5115268;28;19911;-73
2023/06/24 02:06:43;;;;;;;;;;;14.10;99.90;;;;;;5116107;28;20003;-73
2023/06/24 02:09:09;;;;;;;;;;;14.10;99.90;;;;;;5115812;28;19980;-73
2023/06/24 02:11:36;;;;;;;;;;;14.00;99.90;;;;;;5115306;28;19903;-73
2023/06/24 02:14:03;;;;;;;;;;;13.90;99.90;;;;;;5115348;28;19916;-73
2023/06/24 02:16:29;;;;;;;;;;;13.90;99.90;;;;;;5115324;28;19990;-73
2023/06/24 02:18:55;;;;;;;;;;;13.90;99.90;;;;;;5115418;28;20007;-73
2023/06/24 02:21:22;;;;;;;;;;;13.90;99.90;;;;;;5115394;28;19903;-73
2023/06/24 02:23:48;;;;;;;;;;;13.90;99.90;;;;;;5115636;28;19926;-73
2023/06/24 02:26:15;;;;;;;;;;;13.90;99.90;;;;;;5114948;28;24077;-73
2023/06/24 02:28:41;;;;;;;;;;;14.00;99.90;;;;;;5115320;28;19912;-73
2023/06/24 02:31:08;;;;;;;;;;;14.00;99.90;;;;;;5115324;28;20004;-73
2023/06/24 02:33:34;;;;;;;;;;;13.90;99.90;;;;;;5115296;28;20392;-73
2023/06/24 02:35:59;;;;;;;;;;;13.90;99.90;;;;;;5114480;28;19912;-73
2023/06/24 02:38:25;;;;;;;;;;;13.90;99.90;;;;;;5114849;28;24058;-73
2023/06/24 02:40:51;;;;;;;;;;;13.90;99.90;;;;;;5114936;28;19942;-73
2023/06/24 02:43:16;;;;;;;;;;;13.80;99.90;;;;;;5114836;28;19904;-73
2023/06/24 02:45:42;;;;;;;;;;;13.80;99.90;;;;;;5115036;28;20254;-73
2023/06/24 02:48:08;;;;;;;;;;;13.70;99.90;;;;;;5114654;28;24063;-73
2023/06/24 02:50:35;;;;;;;;;;;13.60;99.90;;;;;;5114652;28;19908;-73
2023/06/24 02:53:01;;;;;;;;;;;13.60;99.90;;;;;;5114087;28;20016;-73
2023/06/24 02:55:27;;;;;;;;;;;13.60;99.90;;;;;;5114680;28;19997;-73
2023/06/24 02:57:53;;;;;;;;;;;13.60;99.90;;;;;;5114207;28;19904;-73
2023/06/24 03:00:19;;;;;;;;;;;13.60;99.90;;;;;;5114474;28;20423;-73
2023/06/24 03:02:45;;;;;;;;;;;13.60;99.90;;;;;;5114359;28;19934;-73
2023/06/24 03:05:11;;;;;;;;;;;13.60;99.90;;;;;;5114490;28;20428;-73
2023/06/24 03:07:38;;;;;;;;;;;13.70;99.90;;;;;;5114530;27;19931;-73
2023/06/24 03:10:05;;;;;;;;;;;13.70;99.90;;;;;;5115245;28;19955;-73
2023/06/24 03:12:31;;;;;;;;;;;13.70;99.90;;;;;;5114512;28;20025;-74
2023/06/24 03:14:56;;;;;;;;;;;13.70;99.90;;;;;;5113970;28;19962;-74
2023/06/24 03:17:22;;;;;;;;;;;13.80;99.90;;;;;;5113971;28;19912;-74
2023/06/24 03:19:47;;;;;;;;;;;13.80;99.90;;;;;;5113762;28;20306;-74
2023/06/24 03:22:13;;;;;;;;;;;13.90;99.90;;;;;;5113945;28;19911;-74
2023/06/24 03:24:38;;;;;;;;;;;13.90;99.90;;;;;;5113579;28;19912;-75
2023/06/24 03:27:04;;;;;;;;;;;14.00;99.90;;;;;;5113625;28;20044;-75
2023/06/24 03:29:29;;;;;;;;;;;14.00;99.90;;;;;;5113664;28;19956;-75
2023/06/24 03:31:55;;;;;;;;;;;14.00;99.90;;;;;;5113590;28;19915;-74
2023/06/24 03:34:21;;;;;;;;;;;14.00;99.90;;;;;;5113855;28;19922;-74
2023/06/24 03:36:46;;;;;;;;;;;14.00;99.90;;;;;;5113523;28;19912;-75
2023/06/24 03:39:12;;;;;;;;;;;14.00;99.90;;;;;;5113559;28;19912;-75
2023/06/24 03:41:38;;;;;;;;;;;13.90;99.90;;;;;;5114133;28;19914;-74
2023/06/24 03:44:04;;;;;;;;;;;13.90;99.90;;;;;;5113796;28;19912;-74
2023/06/24 03:46:32;;;;;;;;;;;13.90;99.90;;;;;;5113489;28;19957;-75
2023/06/24 03:48:58;;;;;;;;;;;13.90;99.90;;;;;;5113359;28;19907;-75
2023/06/24 03:51:24;;;;;;;;;;;13.90;99.90;;;;;;5113323;28;19912;-74
2023/06/24 03:53:50;;;;;;;;;;;13.90;99.90;;;;;;5111991;28;19939;-75
2023/06/24 03:56:15;;;;;;;;;;;13.90;99.90;;;;;;5111797;28;20009;-74
2023/06/24 03:58:41;;;;;;;;;;;13.90;99.90;;;;;;5113298;28;19911;-74
2023/06/24 04:01:06;;;;;;;;;;;13.90;99.90;;;;;;5113123;28;19903;-74
2023/06/24 04:03:32;;;;;;;;;;;13.90;99.90;;;;;;5112279;28;19991;-74
2023/06/24 04:05:58;;;;;;;;;;;13.90;99.90;;;;;;5113029;27;19904;-74
2023/06/24 04:08:29;;;;;;;;;;;13.90;99.90;;;;;;5113279;28;19954;-74
2023/06/24 04:10:55;;;;;;;;;;;13.90;99.90;;;;;;5114759;28;19904;-74
2023/06/24 04:13:20;;;;;;;;;;;13.90;99.90;;;;;;5112903;28;19947;-74
2023/06/24 04:15:46;;;;;;;;;;;13.90;99.90;;;;;;5112936;28;19958;-74
2023/06/24 04:18:11;;;;;;;;;;;13.90;99.90;;;;;;5112893;28;24056;-74
2023/06/24 04:20:37;;;;;;;;;;;13.90;99.90;;;;;;5113550;28;20235;-74
2023/06/24 04:23:03;;;;;;;;;;;13.90;99.90;;;;;;5111648;28;20004;-74
2023/06/24 04:25:29;;;;;;;;;;;13.80;99.90;;;;;;5112597;28;19903;-75
2023/06/24 04:27:54;;;;;;;;;;;13.80;99.90;;;;;;5112882;28;20270;-74
2023/06/24 04:30:20;;;;;;;;;;;13.90;99.90;;;;;;5113034;28;19950;-74
2023/06/24 04:32:45;;;;;;;;;;;13.90;99.90;;;;;;5112710;28;24096;-74
2023/06/24 04:35:11;;;;;;;;;;;13.90;99.90;;;;;;5112488;28;19908;-74
2023/06/24 04:37:36;;;;;;;;;;;13.90;99.90;;;;;;5112702;28;19953;-73
2023/06/24 04:40:02;;;;;;;;;;;14.00;99.90;;;;;;5112781;28;19935;-73
2023/06/24 04:42:28;;;;;;;;;;;14.00;99.90;;;;;;5112733;28;19999;-73
2023/06/24 04:44:53;;;;;;;;;;;14.00;99.90;;;;;;5112481;28;19943;-73
2023/06/24 04:47:19;;;;;;;;;;;13.90;99.90;;;;;;5112649;28;20414;-73
2023/06/24 04:49:45;;;;;;;;;;;13.90;99.90;;;;;;5112610;28;19986;-73
2023/06/24 04:52:11;;;;;;;;;;;13.90;99.90;;;;;;5112984;28;19947;-74
2023/06/24 04:54:36;;;;;;;;;;;13.90;99.90;;;;;;5112596;28;19957;-74
2023/06/24 04:57:02;;;;;;;;;;;13.90;99.90;;;;;;5112540;28;19912;-74
2023/06/24 04:59:28;;;;;;;;;;;13.90;99.90;;;;;;5112729;28;19999;-74
2023/06/24 05:01:53;;;;;;;;;;;13.90;99.90;;;;;;5112794;28;19969;-74
2023/06/24 05:04:19;;;;;;;;;;;14.00;99.90;;;;;;5112532;28;19910;-74
2023/06/24 05:06:44;;;;;;;;;;;14.00;99.90;;;;;;5112526;28;19962;-75
2023/06/24 05:09:14;;;;;;;;;;;14.00;99.90;;;;;;5112606;28;19908;-74
2023/06/24 05:11:40;;;;;;;;;;;14.00;99.90;;;;;;5112521;28;19991;-75
2023/06/24 05:14:05;;;;;;;;;;;14.00;99.90;;;;;;5112263;28;24075;-74
2023/06/24 05:16:31;;;;;;;;;;;14.00;99.90;;;;;;5116188;28;20014;-74
2023/06/24 05:18:57;;;;;;;;;;;13.90;99.90;;;;;;5116387;28;19915;-74
2023/06/24 05:21:22;;;;;;;;;;;14.00;99.90;;;;;;5116626;28;19903;-74
2023/06/24 05:23:48;;;;;;;;;;;13.90;99.90;;;;;;5116179;28;19911;-74
2023/06/24 05:26:13;;;;;;;;;;;13.90;99.90;;;;;;5116037;28;20322;-74
2023/06/24 05:28:39;;;;;;;;;;;13.90;99.90;;;;;;5116171;28;19911;-74
2023/06/24 05:31:05;;;;;;;;;;;14.00;99.90;;;;;;5115268;28;19999;-75
2023/06/24 05:33:30;;;;;;;;;;;14.10;99.90;;;;;;5116180;28;24069;-75
2023/06/24 05:35:56;;;;;;;;;;;14.10;99.90;;;;;;5114250;28;19957;-74
2023/06/24 05:38:21;;;;;;;;;;;14.10;99.90;;;;;;5115495;28;19907;-74
2023/06/24 05:40:47;;;;;;;;;;;14.20;99.90;;;;;;5115098;28;19914;-74
2023/06/24 05:43:13;;;;;;;;;;;14.20;99.90;;;;;;5115432;28;19923;-74
2023/06/24 05:45:38;;;;;;;;;;;14.30;99.90;;;;;;5115605;28;19904;-74
2023/06/24 05:48:04;;;;;;;;;;;14.30;99.90;;;;;;5114447;28;20475;-75
2023/06/24 05:50:29;;;;;;;;;;;14.40;99.90;;;;;;5116076;28;19907;-75
2023/06/24 05:52:55;;;;;;;;;;;14.40;99.90;;;;;;5115764;28;24137;-75
2023/06/24 05:55:21;;;;;;;;;;;14.40;99.90;;;;;;5115349;28;20365;-74
2023/06/24 05:57:46;;;;;;;;;;;14.40;99.90;;;;;;5115957;28;20455;-75
2023/06/24 06:00:12;;;;;;;;;;;14.40;99.90;;;;;;5115524;28;19904;-75
2023/06/24 06:02:37;;;;;;;;;;;14.40;99.90;;;;;;5115687;28;19908;-74
2023/06/24 06:05:03;;;;;;;;;;;14.50;99.90;;;;;;5116067;28;19943;-74
2023/06/24 06:07:28;;;;;;;;;;;14.50;99.90;;;;;;5115901;28;25128;-73
2023/06/24 06:09:54;;;;;;;;;;;14.50;99.90;;;;;;5105229;28;19908;-73
2023/06/24 06:12:19;;;;;;;;;;;14.50;99.90;;;;;;5109205;28;20332;-74
2023/06/24 06:14:45;;;;;;;;;;;14.50;99.90;;;;;;5113415;28;19930;-73
2023/06/24 06:17:11;;;;;;;;;;;14.50;99.90;;;;;;5113472;28;19918;-73
2023/06/24 06:19:39;;;;;;;;;;;14.50;99.90;;;;;;5100694;28;24108;-73
2023/06/24 06:22:05;;;;;;;;;;;14.50;99.90;;;;;;5094698;28;19920;-73
2023/06/24 06:24:31;;;;;;;;;;;14.60;99.90;;;;;;5114672;28;19904;-73
2023/06/24 06:26:57;;;;;;;;;;;14.60;99.90;;;;;;5113273;28;20002;-73
2023/06/24 06:29:23;;;;;;;;;;;14.60;99.90;;;;;;5108712;28;19954;-74
2023/06/24 06:31:48;;;;;;;;;;;14.60;99.90;;;;;;5095152;28;19908;-74
2023/06/24 06:34:14;;;;;;;;;;;14.60;99.90;;;;;;5094886;28;19912;-74
2023/06/24 06:36:39;;;;;;;;;;;14.60;99.90;;;;;;5095288;28;19916;-74
2023/06/24 06:39:05;;;;;;;;;;;14.60;99.90;;;;;;5094965;28;19912;-74
2023/06/24 06:41:31;;;;;;;;;;;14.60;99.90;;;;;;5094657;28;19912;-73
2023/06/24 06:43:56;;;;;;;;;;;14.60;99.90;;;;;;5096232;28;20369;-73
2023/06/24 06:46:22;;;;;;;;;;;14.60;99.90;;;;;;5114125;28;20354;-74
2023/06/24 06:48:47;;;;;;;;;;;14.50;99.90;;;;;;5113851;28;19907;-74
2023/06/24 06:51:13;;;;;;;;;;;14.50;99.90;;;;;;5114418;28;20387;-74
2023/06/24 06:53:38;;;;;;;;;;;14.50;99.90;;;;;;5114104;28;19903;-73
2023/06/24 06:56:04;;;;;;;;;;;14.60;99.90;;;;;;5113962;28;24082;-74
2023/06/24 06:58:29;;;;;;;;;;;14.50;99.90;;;;;;5113900;28;19908;-73
2023/06/24 07:00:55;;;;;;;;;;;14.60;99.90;;;;;;5113898;28;19911;-74
2023/06/24 07:03:21;;;;;;;;;;;14.60;99.90;;;;;;5114184;28;24060;-74
2023/06/24 07:05:47;;;;;;;;;;;14.60;99.90;;;;;;5114953;28;24067;-74
2023/06/24 07:08:12;;;;;;;;;;;14.60;99.90;;;;;;5114621;28;19908;-75
2023/06/24 07:10:38;;;;;;;;;;;14.60;99.90;;;;;;5114469;28;19927;-75
2023/06/24 07:13:03;;;;;;;;;;;14.70;99.90;;;;;;5114230;28;19934;-75
2023/06/24 07:15:29;;;;;;;;;;;14.70;99.90;;;;;;5114251;28;20371;-75
2023/06/24 07:17:54;;;;;;;;;;;14.70;99.90;;;;;;5114538;27;19903;-74
2023/06/24 07:20:21;;;;;;;;;;;14.80;99.90;;;;;;5114342;28;20361;-74
2023/06/24 07:22:47;;;;;;;;;;;14.80;99.90;;;;;;5114549;28;20284;-75
2023/06/24 07:25:12;;;;;;;;;;;14.80;99.90;;;;;;5113948;28;24074;-74
2023/06/24 07:27:38;;;;;;;;;;;14.90;99.90;;;;;;5113960;28;19903;-74
2023/06/24 07:30:04;;;;;;;;;;;14.90;99.90;;;;;;5113893;28;19912;-74
2023/06/24 07:32:30;;;;;;;;;;;14.90;99.90;;;;;;5114250;28;24110;-74
2023/06/24 07:34:56;;;;;;;;;;;14.80;99.90;;;;;;5113779;28;19909;-74
2023/06/24 07:37:22;;;;;;;;;;;14.80;99.90;;;;;;5102547;28;19916;-73
2023/06/24 07:39:47;;;;;;;;;;;14.90;99.90;;;;;;5103841;28;19998;-73
2023/06/24 07:42:18;;;;;;;;;;;14.90;99.90;;;;;;5112818;28;19915;-73
2023/06/24 07:44:47;;;;;;;;;;;14.80;99.90;;;;;;5111972;28;19950;-73
2023/06/24 07:47:12;;;;;;;;;;;14.90;99.90;;;;;;5112384;28;19903;-73
2023/06/24 07:49:38;;;;;;;;;;;14.90;99.90;;;;;;5112714;28;24094;-73
2023/06/24 07:52:04;;;;;;;;;;;14.90;99.90;;;;;;5113030;28;25166;-74
2023/06/24 07:54:30;;;;;;;;;;;15.00;99.90;;;;;;5113880;28;20423;-74
2023/06/24 07:56:56;;;;;;;;;;;15.10;99.90;;;;;;5113366;28;19912;-74
2023/06/24 07:59:21;;;;;;;;;;;15.10;99.90;;;;;;5113420;28;19930;-74
2023/06/24 08:01:47;;;;;;;;;;;15.10;99.90;;;;;;5113144;28;19903;-74
2023/06/24 08:04:13;;;;;;;;;;;15.20;99.90;;;;;;5113301;28;19951;-74
2023/06/24 08:06:39;;;;;;;;;;;15.20;99.90;;;;;;5113847;28;19908;-74
2023/06/24 08:09:05;;;;;;;;;;;15.30;99.90;;;;;;5113368;28;20252;-74
2023/06/24 08:11:30;;;;;;;;;;;15.30;99.90;;;;;;5113684;28;19912;-74
2023/06/24 08:13:56;;;;;;;;;;;15.30;99.90;;;;;;5112954;28;24072;-74
2023/06/24 08:16:22;;;;;;;;;;;15.40;99.90;;;;;;5113010;28;19951;-74
2023/06/24 08:18:49;;;;;;;;;;;15.40;99.90;;;;;;5110666;28;20164;-74
2023/06/24 08:21:14;;;;;;;;;;;15.50;99.90;;;;;;5110500;28;24070;-74
2023/06/24 08:23:40;;;;;;;;;;;15.60;99.90;;;;;;5110701;28;24056;-74
2023/06/24 08:26:07;;;;;;;;;;;15.70;99.90;;;;;;5109667;28;19914;-74
2023/06/24 08:28:32;;;;;;;;;;;15.70;99.90;;;;;;5111004;28;24053;-74
2023/06/24 08:30:58;;;;;;;;;;;15.70;99.90;;;;;;5111062;28;19904;-74
2023/06/24 08:33:23;;;;;;;;;;;15.80;99.90;;;;;;5111973;28;24146;-74
2023/06/24 08:35:49;;;;;;;;;;;15.80;99.90;;;;;;5112766;28;19940;-74
2023/06/24 08:38:14;;;;;;;;;;;15.90;99.90;;;;;;5112786;28;19960;-74
2023/06/24 08:40:41;;;;;;;;;;;16.00;99.90;;;;;;5112566;28;24094;-74
2023/06/24 08:43:06;;;;;;;;;;;16.00;99.90;;;;;;5113046;28;19908;-74
2023/06/24 08:45:32;;;;;;;;;;;16.10;99.90;;;;;;5112872;28;19914;-74
2023/06/24 08:47:58;;;;;;;;;;;16.10;99.90;;;;;;5112676;28;19914;-74
2023/06/24 08:50:26;;;;;;;;;;;16.10;99.90;;;;;;5114542;28;20019;-74
2023/06/24 08:52:52;;;;;;;;;;;16.20;99.90;;;;;;5117327;28;19904;-74
2023/06/24 08:55:22;;;;;;;4.00;2.67;;;16.20;99.90;;;;;;5117376;28;20356;-74
2023/06/24 08:57:47;;;;;;;4.97;3.58;;;16.30;99.90;;;;;;5117989;28;20035;-74
2023/06/24 09:00:14;;;;;;;4.47;2.90;;;16.40;99.90;;;;;;5117948;28;20031;-74
2023/06/24 09:02:39;;;;;;;5.50;3.58;;;16.50;99.90;;;;;;5117760;28;20374;-73
2023/06/24 09:05:06;;;;;;;5.10;3.70;;;16.50;99.90;;;;;;5117473;28;20053;-72
2023/06/24 09:07:32;;;;;;;5.63;4.00;;;16.60;99.90;;;;;;5117472;28;20082;-72
2023/06/24 09:09:57;;;;;;;5.55;3.67;;;16.70;99.90;;;;;;5118278;28;20397;-70
2023/06/24 09:12:25;;;;;;;7.22;4.93;;;16.70;99.90;;;;;;5117473;28;20036;-70
2023/06/24 09:14:51;;;;;;;6.65;4.35;;;16.70;99.90;;;;;;5117293;28;20031;-70
2023/06/24 09:17:17;;;;;;;5.70;3.50;;;16.70;99.90;;;;;;5115972;28;20157;-70
2023/06/24 09:19:43;;;;;;;4.50;3.40;;;16.70;99.90;;;;;;5117554;28;20484;-72
2023/06/24 09:22:17;;;;;;;4.88;3.15;;;16.70;99.90;;;;;;5116402;28;20108;-73
2023/06/24 09:24:46;;;;;;;5.07;3.40;;;16.80;99.90;;;;;;5117315;28;20024;-73
2023/06/24 09:27:14;;;;;;;4.80;3.13;;;16.80;99.90;;;;;;5117173;28;20036;-73
2023/06/24 09:29:41;;;;;;;9.45;3.20;;;16.90;99.90;;;;;;5115965;28;20035;-73
2023/06/24 09:32:07;;;;;;;5.00;3.20;;;17.00;99.90;;;;;;5117057;28;20023;-73
2023/06/24 09:34:36;;;;;;;4.60;3.28;;;17.00;99.90;;;;;;5116987;28;20110;-73
2023/06/24 09:37:02;;;;;;;5.53;3.15;;;17.10;99.90;;;;;;5116915;28;20389;-73
2023/06/24 09:39:34;;;;;;;4.78;3.25;;;17.10;99.90;;;;;;5117394;28;20030;-74
2023/06/24 09:42:01;;;;;;;5.22;3.40;;;17.20;99.90;;;;;;5115894;28;20412;-74
2023/06/24 09:44:28;;;;;;;4.50;2.78;;;17.40;99.90;;;;;;5115516;28;20024;-73
2023/06/24 09:46:55;;;;;;;4.22;2.72;;;17.40;99.90;;;;;;5116777;28;20038;-74
2023/06/24 09:49:21;;;;;;;3.92;2.63;;;17.50;99.90;;;;;;5117092;28;20077;-74
2023/06/24 09:51:49;;;;;;;4.65;2.88;;;17.50;99.90;;;;;;5117079;27;20028;-74
2023/06/24 09:54:16;;;;;;;4.72;2.45;;;17.60;99.90;;;;;;5117391;28;20031;-73
2023/06/24 09:56:53;;;;;;;3.40;2.40;;;17.70;99.90;;;;;;5118864;28;20038;-73
2023/06/24 09:59:22;;;;;;;3.78;2.33;;;17.80;99.90;;;;;;5118177;28;20047;-74
2023/06/24 10:01:49;;;;;;;3.97;2.75;;;17.80;99.90;;;;;;5115506;28;20099;-74
2023/06/24 10:04:20;;;;;;;4.25;2.70;;;18.00;99.90;;;;;;5117370;28;20031;-74
2023/06/24 10:06:46;;;;;;;4.85;2.67;;;18.10;99.90;;;;;;5117274;27;20107;-74
2023/06/24 10:09:13;;;;;;;3.47;2.40;;;18.20;99.90;;;;;;5116802;28;20028;-74
2023/06/24 10:11:39;;;;;;;5.55;2.30;;;18.40;99.90;;;;;;5117126;28;20020;-71
2023/06/24 10:14:05;;;;;;;5.00;2.40;;;18.50;99.90;;;;;;5116103;28;20157;-71
2023/06/24 10:16:31;;;;;;;4.68;2.58;;;18.60;99.90;;;;;;5108873;28;20114;-71
2023/06/24 10:19:04;;;;;;;4.88;2.67;;;18.80;99.90;;;;;;5095793;28;20026;-72
2023/06/24 10:21:51;;;;;;;5.30;2.40;;;18.90;99.90;;;;;;5094435;28;20073;-71
2023/06/24 10:24:39;;;;;;;7.60;2.92;;;19.00;99.90;;;;;;5095807;28;20021;-72
2023/06/24 10:27:07;;;;;;;6.15;3.08;;;19.10;99.90;;;;;;5095665;28;20501;-72
2023/06/24 10:29:37;;;;;;;6.20;3.40;;;19.20;99.90;;;;;;5094583;28;20432;-72
2023/06/24 10:32:12;;;;;;;5.13;2.70;;;19.20;99.90;;;;;;5096386;28;20490;-72
2023/06/24 10:34:37;;;;;;;3.85;2.50;;;19.40;99.90;;;;;;5095507;28;20099;-72
2023/06/24 10:37:03;;;;;;;5.50;3.67;;;19.50;99.90;;;;;;5095741;28;20525;-72
2023/06/24 10:39:59;;;;;;;3.42;2.65;;;19.70;99.90;;;;;;5095386;28;20016;-72
2023/06/24 10:42:43;;;;;;;6.25;3.33;;;20.00;99.90;;;;;;5095744;28;20031;-72
2023/06/24 10:45:09;;;;;;;5.13;3.00;;;20.40;99.90;;;;;;5095335;28;20473;-73
2023/06/24 10:47:38;;;;;;;4.53;2.65;;;20.50;99.90;;;;;;5095165;28;20039;-73
2023/06/24 10:50:05;;;;;;;3.83;2.38;;;20.60;98.70;;;;;;5095532;28;20028;-73
2023/06/24 10:52:31;;;;;;;4.00;2.40;;;20.70;99.90;;;;;;5095177;28;20051;-73
2023/06/24 10:54:58;;;;;;;4.80;3.30;;;20.70;98.20;;;;;;5095124;28;20081;-72
2023/06/24 10:57:26;;;;;;;3.78;2.40;;;20.60;98.00;;;;;;5093740;28;20070;-73
2023/06/24 10:59:54;;;;;;;4.03;2.35;;;20.50;99.70;;;;;;5095036;28;20099;-73
2023/06/24 11:02:22;;;;;;;4.20;2.88;;;20.60;99.90;;;;;;5095029;28;20030;-73
2023/06/24 11:04:50;;;;;;;3.92;2.60;;;20.70;99.70;;;;;;5095119;28;20024;-73
2023/06/24 11:07:18;;;;;;;4.93;2.53;;;20.70;97.10;;;;;;5094852;28;20081;-73
2023/06/24 11:09:50;;;;;;;5.18;2.85;;;20.60;98.00;;;;;;5094882;28;20521;-73
2023/06/24 11:12:16;;;;;;;4.10;2.60;;;20.70;97.70;;;;;;5094618;28;20027;-73
2023/06/24 11:14:42;;;;;;;4.10;2.97;;;20.70;98.90;;;;;;5095339;28;20035;-73
2023/06/24 11:17:08;;;;;;;3.75;2.67;;;20.70;99.00;;;;;;5094879;28;20089;-73
2023/06/24 11:19:38;;;;;;;4.65;2.50;;;20.80;98.70;;;;;;5093495;28;20028;-73
2023/06/24 11:22:05;;;;;;;3.25;2.20;;;20.90;97.30;;;;;;5094553;28;20107;-73
2023/06/24 11:24:31;;;;;;;3.53;2.30;;;20.90;97.40;;;;;;5094461;28;20031;-73
2023/06/24 11:26:57;;;;;;;6.05;2.55;;;21.00;98.10;;;;;;5094814;28;20024;-73
2023/06/24 11:29:23;;;;;;;4.13;2.75;;;21.00;98.50;;;;;;5094454;28;20052;-73
2023/06/24 11:31:50;;;;;;;3.92;2.67;;;21.10;96.90;;;;;;5094531;28;20032;-73
2023/06/24 11:34:19;;;;;;;3.78;2.40;;;21.20;97.10;;;;;;5107665;28;20019;-72
2023/06/24 11:36:45;;;;;;;4.78;2.40;;;21.30;95.70;;;;;;5097484;28;20040;-72
2023/06/24 11:39:22;;;;;;;3.72;1.90;;;21.20;96.60;;;;;;5095096;28;20036;-72
2023/06/24 11:41:47;;;;;;;3.38;2.20;;;21.20;97.80;;;;;;5113915;28;20024;-72
2023/06/24 11:44:13;;;;;;;4.25;2.45;;;21.30;96.20;;;;;;5114411;28;20018;-73
2023/06/24 11:46:40;;;;;;;5.30;2.47;;;21.40;97.60;;;;;;5114736;28;20081;-73
2023/06/24 11:49:06;;;;;;;4.05;2.40;;;21.50;95.80;;;;;;5113240;28;20501;-73
2023/06/24 11:51:32;;;;;;;3.80;2.30;;;21.40;94.00;;;;;;5114690;28;20052;-72
2023/06/24 11:54:03;;;;;;;3.78;2.45;;;21.50;94.00;;;;;;5114548;28;20042;-75
2023/06/24 11:56:39;;;;;;;3.17;2.03;;;21.60;94.60;;;;;;5114506;28;20023;-72
2023/06/24 11:59:19;;;;;;;3.47;2.47;;;21.60;93.50;;;;;;5114611;28;20028;-73
2023/06/24 12:01:52;;;;;;;2.97;2.00;;;21.40;94.30;;;;;;5114317;28;20095;-73
2023/06/24 12:04:17;;;;;;;3.38;2.28;;;21.40;92.80;;;;;;5114633;28;20439;-73
2023/06/24 12:06:45;;;;;;;4.15;2.25;;;21.40;92.00;;;;;;5114686;28;20058;-73
2023/06/24 12:09:11;;;;;;;3.50;2.05;;;21.40;92.90;;;;;;5114423;28;20028;-73
2023/06/24 12:11:37;;;;;;;4.00;2.20;;;21.60;92.20;;;;;;5112887;28;20059;-73
2023/06/24 12:14:03;;;;;;;3.55;1.95;;;21.70;93.60;;;;;;5113862;28;20516;-72
2023/06/24 12:16:29;;;;;;;3.33;1.90;;;21.80;93.40;;;;;;5112835;28;20038;-73
2023/06/24 12:18:55;;;;;;;3.92;2.13;;;21.70;89.40;;;;;;5114080;27;20031;-73
2023/06/24 12:21:21;;;;;;;3.65;2.05;;;21.60;90.40;;;;;;5109939;27;20023;-72
2023/06/24 12:23:47;;;;;;;2.80;1.98;;;21.60;91.00;;;;;;5117581;27;20019;-72
2023/06/24 12:26:13;;;;;;;3.38;1.80;;;21.60;91.90;;;;;;5124383;27;20515;-72
2023/06/24 12:28:38;;;;;;;4.22;2.30;;;21.60;90.40;;;;;;5121210;27;20031;-71
2023/06/24 12:31:04;;;;;;;3.60;2.35;;;21.60;91.20;;;;;;5123952;28;20032;-71
2023/06/24 12:33:30;;;;;;;2.83;2.10;;;21.50;91.70;;;;;;5122755;27;21411;-71
2023/06/24 12:35:56;;;;;;;3.13;1.98;;;21.50;92.00;;;;;;5119999;28;20473;-72
2023/06/24 12:38:22;;;;;;;3.20;1.90;;;21.50;90.80;;;;;;5123678;27;20072;-72
2023/06/24 12:40:48;;;;;;;3.15;2.10;;;21.50;89.00;;;;;;5115846;28;20386;-71
2023/06/24 12:43:14;;;;;;;3.45;2.33;;;21.50;89.60;;;;;;5112336;28;20047;-72
2023/06/24 12:45:43;;;;;;;3.10;1.98;;;21.60;87.60;;;;;;5113421;28;20023;-72
2023/06/24 12:48:09;;;;;;;2.72;1.83;;;21.60;88.40;;;;;;5113489;28;20485;-72
2023/06/24 12:50:35;;;;;;;3.33;2.08;;;21.70;89.70;;;;;;5110761;28;20078;-72
2023/06/24 12:53:01;;;;;;;4.45;2.17;;;21.70;86.50;;;;;;5113536;28;20465;-72
2023/06/24 12:55:27;;;;;;;3.55;2.05;;;21.60;86.00;;;;;;5113344;28;20055;-72
2023/06/24 12:57:53;;;;;;;3.92;2.47;;;21.50;85.60;;;;;;5113332;28;20080;-72
2023/06/24 13:00:23;;;;;;;3.53;2.13;;;21.50;87.00;;;;;;5113535;28;20480;-72
2023/06/24 13:02:49;;;;;;;3.50;2.13;;;21.40;89.30;;;;;;5113514;28;20023;-72
2023/06/24 13:05:15;;;;;;;2.75;1.95;;;21.40;86.40;;;;;;5110558;28;20024;-72
2023/06/24 13:07:41;;;;;;;3.00;2.13;;;21.40;85.50;;;;;;5113299;28;20024;-72
2023/06/24 13:10:07;;;;;;;4.05;2.00;;;21.30;85.50;;;;;;5113399;28;20097;-72
2023/06/24 13:12:34;;;;;;;2.95;1.73;;;21.30;84.80;;;;;;5113305;28;20024;-72
2023/06/24 13:15:00;;;;;;;3.30;1.95;;;21.20;85.20;;;;;;5113046;28;20032;-72
2023/06/24 13:17:25;;;;;;;4.75;2.08;;;21.20;86.10;;;;;;5113142;28;20085;-72
2023/06/24 13:19:52;;;;;;;3.30;2.17;;;21.40;84.90;;;;;;5113139;28;20035;-72
2023/06/24 13:22:18;;;;;;;4.45;1.92;;;21.50;82.70;;;;;;5111866;28;20081;-72
2023/06/24 13:24:44;;;;;;;3.08;2.08;;;21.70;83.10;;;;;;5113076;28;20039;-72
2023/06/24 13:27:10;;;;;;;3.38;2.25;;;21.80;84.00;;;;;;5113075;28;20107;-72
2023/06/24 13:29:36;;;;;;;4.30;2.25;;;22.20;86.40;;;;;;5113103;28;20104;-72
2023/06/24 13:32:01;;;;;;;3.22;2.00;;;22.60;87.80;;;;;;5113193;28;20491;-72
2023/06/24 13:34:27;;;;;;;2.90;2.20;;;22.90;85.40;;;;;;5113157;28;20397;-72
2023/06/24 13:36:53;;;;;;;3.58;2.05;;;23.10;83.20;;;;;;5114053;28;20020;-72
2023/06/24 13:39:22;;;;;;;4.13;1.90;;;23.30;79.90;;;;;;5116748;28;20077;-72
2023/06/24 13:41:47;;;;;;;3.45;1.90;;;23.60;83.20;;;;;;5116732;28;20023;-72